sensor_id;sensor_type;location;lat;lon;timestamp;P1;durP1;ratioP1;P2;durP2;ratioP2
18822;SDS011;9540;51.550;7.980;2023-02-14T00:05:24;20.20;;;9.80;;
18822;SDS011;9540;51.550;7.980;2023-02-14T00:07:51;21.93;;;10.67;;
18822;SDS011;9540;51.550;7.980;2023-02-14T00:10:18;19.80;;;10.03;;
18822;SDS011;9540;51.550;7.980;2023-02-14T00:12:45;18.47;;;8.93;;
18822;SDS011;9540;51.550;7.980;2023-02-14T00:15:13;19.83;;;10.77;;
18822;SDS011;9540;51.550;7.980;2023-02-14T00:17:49;24.97;;;11.63;;
18822;SDS011;9540;51.550;7.980;2023-02-14T00:20:17;23.30;;;11.83;;
18822;SDS011;9540;51.550;7.980;2023-02-14T00:22:45;21.73;;;12.10;;
18822;SDS011;9540;51.550;7.980;2023-02-14T00:25:12;31.33;;;12.70;;
18822;SDS011;9540;51.550;7.980;2023-02-14T00:27:40;21.73;;;10.97;;
18822;SDS011;9540;51.550;7.980;2023-02-14T00:30:13;21.40;;;12.20;;
18822;SDS011;9540;51.550;7.980;2023-02-14T00:32:41;24.90;;;11.47;;
18822;SDS011;9540;51.550;7.980;2023-02-14T01:06:07;16.47;;;8.13;;
18822;SDS011;9540;51.550;7.980;2023-02-14T01:08:34;12.20;;;8.30;;
18822;SDS011;9540;51.550;7.980;2023-02-14T01:11:10;13.40;;;8.77;;
18822;SDS011;9540;51.550;7.980;2023-02-14T01:13:39;16.50;;;9.27;;
18822;SDS011;9540;51.550;7.980;2023-02-14T01:16:07;12.70;;;8.17;;
18822;SDS011;9540;51.550;7.980;2023-02-14T01:18:36;14.30;;;8.93;;
18822;SDS011;9540;51.550;7.980;2023-02-14T01:21:16;15.40;;;8.77;;
18822;SDS011;9540;51.550;7.980;2023-02-14T01:23:45;16.43;;;8.60;;
18822;SDS011;9540;51.550;7.980;2023-02-14T01:26:14;14.93;;;8.47;;
18822;SDS011;9540;51.550;7.980;2023-02-14T01:28:42;15.67;;;8.53;;
18822;SDS011;9540;51.550;7.980;2023-02-14T01:31:10;15.70;;;8.40;;
18822;SDS011;9540;51.550;7.980;2023-02-14T01:33:39;13.37;;;7.90;;
18822;SDS011;9540;51.550;7.980;2023-02-14T01:36:13;12.57;;;8.27;;
18822;SDS011;9540;51.550;7.980;2023-02-14T01:38:44;17.13;;;8.50;;
18822;SDS011;9540;51.550;7.980;2023-02-14T01:41:11;15.87;;;8.50;;
18822;SDS011;9540;51.550;7.980;2023-02-14T01:43:49;13.60;;;8.47;;
18822;SDS011;9540;51.550;7.980;2023-02-14T01:46:17;14.47;;;8.13;;
18822;SDS011;9540;51.550;7.980;2023-02-14T01:48:44;15.07;;;8.47;;
18822;SDS011;9540;51.550;7.980;2023-02-14T01:51:12;13.93;;;8.30;;
18822;SDS011;9540;51.550;7.980;2023-02-14T01:53:43;15.67;;;7.77;;
18822;SDS011;9540;51.550;7.980;2023-02-14T01:56:12;14.03;;;8.10;;
18822;SDS011;9540;51.550;7.980;2023-02-14T01:58:44;15.73;;;8.97;;
18822;SDS011;9540;51.550;7.980;2023-02-14T02:01:16;11.97;;;7.27;;
18822;SDS011;9540;51.550;7.980;2023-02-14T02:03:45;14.40;;;8.27;;
18822;SDS011;9540;51.550;7.980;2023-02-14T02:06:17;14.73;;;7.33;;
18822;SDS011;9540;51.550;7.980;2023-02-14T02:08:51;13.57;;;7.93;;
18822;SDS011;9540;51.550;7.980;2023-02-14T02:11:26;15.07;;;8.83;;
18822;SDS011;9540;51.550;7.980;2023-02-14T02:13:54;16.50;;;8.37;;
18822;SDS011;9540;51.550;7.980;2023-02-14T02:16:29;13.10;;;7.70;;
18822;SDS011;9540;51.550;7.980;2023-02-14T02:19:16;15.27;;;8.30;;
18822;SDS011;9540;51.550;7.980;2023-02-14T02:22:11;15.60;;;7.73;;
18822;SDS011;9540;51.550;7.980;2023-02-14T02:25:04;13.93;;;8.23;;
18822;SDS011;9540;51.550;7.980;2023-02-14T02:27:45;11.57;;;7.53;;
18822;SDS011;9540;51.550;7.980;2023-02-14T02:30:38;12.07;;;7.33;;
18822;SDS011;9540;51.550;7.980;2023-02-14T02:33:40;13.60;;;7.57;;
18822;SDS011;9540;51.550;7.980;2023-02-14T02:39:42;14.63;;;7.03;;
18822;SDS011;9540;51.550;7.980;2023-02-14T02:42:20;12.73;;;7.03;;
18822;SDS011;9540;51.550;7.980;2023-02-14T02:44:56;10.20;;;6.47;;
18822;SDS011;9540;51.550;7.980;2023-02-14T02:47:32;12.00;;;6.90;;
18822;SDS011;9540;51.550;7.980;2023-02-14T02:50:04;13.43;;;7.03;;
18822;SDS011;9540;51.550;7.980;2023-02-14T02:53:03;10.53;;;7.33;;
18822;SDS011;9540;51.550;7.980;2023-02-14T02:55:39;15.47;;;7.27;;
18822;SDS011;9540;51.550;7.980;2023-02-14T02:58:26;12.60;;;7.30;;
18822;SDS011;9540;51.550;7.980;2023-02-14T03:00:58;11.67;;;6.63;;
18822;SDS011;9540;51.550;7.980;2023-02-14T03:03:28;12.53;;;7.67;;
18822;SDS011;9540;51.550;7.980;2023-02-14T03:06:15;14.50;;;7.20;;
18822;SDS011;9540;51.550;7.980;2023-02-14T03:08:44;13.77;;;8.33;;
18822;SDS011;9540;51.550;7.980;2023-02-14T03:11:11;14.37;;;8.40;;
18822;SDS011;9540;51.550;7.980;2023-02-14T03:16:32;13.10;;;7.67;;
18822;SDS011;9540;51.550;7.980;2023-02-14T03:19:17;14.57;;;7.87;;
18822;SDS011;9540;51.550;7.980;2023-02-14T03:22:01;13.93;;;7.50;;
18822;SDS011;9540;51.550;7.980;2023-02-14T03:24:36;16.63;;;8.30;;
18822;SDS011;9540;51.550;7.980;2023-02-14T03:27:12;14.00;;;7.63;;
18822;SDS011;9540;51.550;7.980;2023-02-14T03:29:45;11.17;;;7.10;;
18822;SDS011;9540;51.550;7.980;2023-02-14T03:32:23;14.07;;;7.13;;
18822;SDS011;9540;51.550;7.980;2023-02-14T03:34:56;13.47;;;7.60;;
18822;SDS011;9540;51.550;7.980;2023-02-14T03:37:32;16.37;;;7.33;;
18822;SDS011;9540;51.550;7.980;2023-02-14T03:40:08;12.87;;;7.83;;
18822;SDS011;9540;51.550;7.980;2023-02-14T03:42:39;11.30;;;7.23;;
18822;SDS011;9540;51.550;7.980;2023-02-14T03:45:11;14.13;;;7.60;;
18822;SDS011;9540;51.550;7.980;2023-02-14T03:47:42;15.43;;;7.17;;
18822;SDS011;9540;51.550;7.980;2023-02-14T03:50:11;10.63;;;6.33;;
18822;SDS011;9540;51.550;7.980;2023-02-14T03:52:41;11.27;;;6.03;;
18822;SDS011;9540;51.550;7.980;2023-02-14T03:55:11;11.43;;;6.17;;
18822;SDS011;9540;51.550;7.980;2023-02-14T03:57:45;13.50;;;7.10;;
18822;SDS011;9540;51.550;7.980;2023-02-14T04:00:16;14.30;;;6.87;;
18822;SDS011;9540;51.550;7.980;2023-02-14T04:02:45;10.93;;;6.73;;
18822;SDS011;9540;51.550;7.980;2023-02-14T04:05:16;11.03;;;7.37;;
18822;SDS011;9540;51.550;7.980;2023-02-14T04:07:48;10.03;;;6.33;;
18822;SDS011;9540;51.550;7.980;2023-02-14T04:10:19;12.47;;;6.93;;
18822;SDS011;9540;51.550;7.980;2023-02-14T04:12:47;13.47;;;7.47;;
18822;SDS011;9540;51.550;7.980;2023-02-14T04:15:14;15.63;;;7.00;;
18822;SDS011;9540;51.550;7.980;2023-02-14T04:17:42;13.97;;;7.10;;
18822;SDS011;9540;51.550;7.980;2023-02-14T04:20:26;16.83;;;7.63;;
18822;SDS011;9540;51.550;7.980;2023-02-14T04:22:54;10.57;;;6.93;;
18822;SDS011;9540;51.550;7.980;2023-02-14T04:25:23;13.13;;;6.23;;
18822;SDS011;9540;51.550;7.980;2023-02-14T04:27:50;10.80;;;6.53;;
18822;SDS011;9540;51.550;7.980;2023-02-14T04:30:17;10.83;;;6.67;;
18822;SDS011;9540;51.550;7.980;2023-02-14T04:32:45;12.73;;;6.43;;
18822;SDS011;9540;51.550;7.980;2023-02-14T04:35:12;12.33;;;7.10;;
18822;SDS011;9540;51.550;7.980;2023-02-14T04:37:39;14.50;;;7.30;;
18822;SDS011;9540;51.550;7.980;2023-02-14T04:40:08;13.40;;;7.80;;
18822;SDS011;9540;51.550;7.980;2023-02-14T04:42:37;15.03;;;7.60;;
18822;SDS011;9540;51.550;7.980;2023-02-14T04:45:04;11.10;;;7.27;;
18822;SDS011;9540;51.550;7.980;2023-02-14T04:47:32;14.83;;;6.97;;
18822;SDS011;9540;51.550;7.980;2023-02-14T04:50:02;10.77;;;6.50;;
18822;SDS011;9540;51.550;7.980;2023-02-14T04:52:30;9.33;;;6.20;;
18822;SDS011;9540;51.550;7.980;2023-02-14T04:54:57;10.83;;;6.77;;
18822;SDS011;9540;51.550;7.980;2023-02-14T04:57:24;12.17;;;6.93;;
18822;SDS011;9540;51.550;7.980;2023-02-14T04:59:53;9.80;;;6.80;;
18822;SDS011;9540;51.550;7.980;2023-02-14T05:02:20;10.60;;;6.57;;
18822;SDS011;9540;51.550;7.980;2023-02-14T05:04:47;11.53;;;6.40;;
18822;SDS011;9540;51.550;7.980;2023-02-14T05:07:14;10.80;;;6.57;;
18822;SDS011;9540;51.550;7.980;2023-02-14T05:09:42;11.23;;;5.93;;
18822;SDS011;9540;51.550;7.980;2023-02-14T05:12:09;9.00;;;5.97;;
18822;SDS011;9540;51.550;7.980;2023-02-14T05:14:36;9.07;;;5.80;;
18822;SDS011;9540;51.550;7.980;2023-02-14T05:17:04;13.70;;;6.03;;
18822;SDS011;9540;51.550;7.980;2023-02-14T05:19:31;9.33;;;6.40;;
18822;SDS011;9540;51.550;7.980;2023-02-14T05:21:59;10.10;;;6.00;;
18822;SDS011;9540;51.550;7.980;2023-02-14T05:24:26;11.50;;;6.47;;
18822;SDS011;9540;51.550;7.980;2023-02-14T05:26:53;11.47;;;6.10;;
18822;SDS011;9540;51.550;7.980;2023-02-14T05:29:20;9.40;;;5.90;;
18822;SDS011;9540;51.550;7.980;2023-02-14T05:31:47;9.30;;;6.40;;
18822;SDS011;9540;51.550;7.980;2023-02-14T05:34:16;11.13;;;6.53;;
18822;SDS011;9540;51.550;7.980;2023-02-14T05:36:43;13.13;;;7.27;;
18822;SDS011;9540;51.550;7.980;2023-02-14T05:39:10;10.00;;;6.60;;
18822;SDS011;9540;51.550;7.980;2023-02-14T05:41:38;11.17;;;6.70;;
18822;SDS011;9540;51.550;7.980;2023-02-14T05:44:06;9.87;;;6.50;;
18822;SDS011;9540;51.550;7.980;2023-02-14T05:46:33;9.93;;;6.33;;
18822;SDS011;9540;51.550;7.980;2023-02-14T05:49:00;13.27;;;6.83;;
18822;SDS011;9540;51.550;7.980;2023-02-14T05:51:28;11.40;;;7.17;;
18822;SDS011;9540;51.550;7.980;2023-02-14T05:53:55;9.80;;;6.40;;
18822;SDS011;9540;51.550;7.980;2023-02-14T05:56:24;11.23;;;7.23;;
18822;SDS011;9540;51.550;7.980;2023-02-14T05:58:51;10.93;;;6.57;;
18822;SDS011;9540;51.550;7.980;2023-02-14T06:01:18;15.20;;;7.07;;
18822;SDS011;9540;51.550;7.980;2023-02-14T06:03:45;9.23;;;5.97;;
18822;SDS011;9540;51.550;7.980;2023-02-14T06:06:12;12.23;;;7.00;;
18822;SDS011;9540;51.550;7.980;2023-02-14T06:08:41;9.50;;;6.20;;
18822;SDS011;9540;51.550;7.980;2023-02-14T06:11:08;10.60;;;6.43;;
18822;SDS011;9540;51.550;7.980;2023-02-14T06:13:35;13.23;;;6.33;;
18822;SDS011;9540;51.550;7.980;2023-02-14T06:16:04;10.73;;;6.27;;
18822;SDS011;9540;51.550;7.980;2023-02-14T06:18:32;10.47;;;6.73;;
18822;SDS011;9540;51.550;7.980;2023-02-14T06:21:00;10.63;;;6.00;;
18822;SDS011;9540;51.550;7.980;2023-02-14T06:23:28;10.87;;;6.60;;
18822;SDS011;9540;51.550;7.980;2023-02-14T06:25:56;11.27;;;6.47;;
18822;SDS011;9540;51.550;7.980;2023-02-14T06:28:23;11.53;;;6.60;;
18822;SDS011;9540;51.550;7.980;2023-02-14T06:30:50;14.83;;;7.33;;
18822;SDS011;9540;51.550;7.980;2023-02-14T06:33:18;9.30;;;6.10;;
18822;SDS011;9540;51.550;7.980;2023-02-14T06:35:46;9.03;;;6.50;;
18822;SDS011;9540;51.550;7.980;2023-02-14T06:38:13;14.00;;;7.23;;
18822;SDS011;9540;51.550;7.980;2023-02-14T06:40:40;13.03;;;6.87;;
18822;SDS011;9540;51.550;7.980;2023-02-14T06:43:09;14.23;;;7.67;;
18822;SDS011;9540;51.550;7.980;2023-02-14T06:45:36;11.77;;;7.30;;
18822;SDS011;9540;51.550;7.980;2023-02-14T06:48:03;14.10;;;7.70;;
18822;SDS011;9540;51.550;7.980;2023-02-14T06:50:30;12.50;;;7.13;;
18822;SDS011;9540;51.550;7.980;2023-02-14T06:52:57;15.50;;;7.43;;
18822;SDS011;9540;51.550;7.980;2023-02-14T06:55:25;13.53;;;7.17;;
18822;SDS011;9540;51.550;7.980;2023-02-14T06:57:53;11.07;;;7.47;;
18822;SDS011;9540;51.550;7.980;2023-02-14T07:00:22;15.40;;;7.43;;
18822;SDS011;9540;51.550;7.980;2023-02-14T07:02:49;14.50;;;7.90;;
18822;SDS011;9540;51.550;7.980;2023-02-14T07:05:16;15.17;;;8.33;;
18822;SDS011;9540;51.550;7.980;2023-02-14T07:07:44;13.83;;;7.37;;
18822;SDS011;9540;51.550;7.980;2023-02-14T07:10:11;11.20;;;7.23;;
18822;SDS011;9540;51.550;7.980;2023-02-14T07:12:39;14.97;;;8.07;;
18822;SDS011;9540;51.550;7.980;2023-02-14T07:15:07;16.00;;;7.90;;
18822;SDS011;9540;51.550;7.980;2023-02-14T07:17:37;14.63;;;8.10;;
18822;SDS011;9540;51.550;7.980;2023-02-14T07:20:05;13.30;;;8.03;;
18822;SDS011;9540;51.550;7.980;2023-02-14T07:22:35;16.20;;;8.30;;
18822;SDS011;9540;51.550;7.980;2023-02-14T07:25:03;13.47;;;8.10;;
18822;SDS011;9540;51.550;7.980;2023-02-14T07:27:31;17.87;;;8.33;;
18822;SDS011;9540;51.550;7.980;2023-02-14T07:29:58;20.30;;;9.27;;
18822;SDS011;9540;51.550;7.980;2023-02-14T07:32:26;17.50;;;9.63;;
18822;SDS011;9540;51.550;7.980;2023-02-14T07:34:56;15.63;;;8.67;;
18822;SDS011;9540;51.550;7.980;2023-02-14T07:37:24;16.70;;;9.40;;
18822;SDS011;9540;51.550;7.980;2023-02-14T07:39:51;37.80;;;16.37;;
18822;SDS011;9540;51.550;7.980;2023-02-14T07:42:18;34.60;;;14.70;;
18822;SDS011;9540;51.550;7.980;2023-02-14T07:44:45;23.90;;;11.37;;
18822;SDS011;9540;51.550;7.980;2023-02-14T07:47:12;27.47;;;11.47;;
18822;SDS011;9540;51.550;7.980;2023-02-14T07:49:39;19.60;;;10.60;;
18822;SDS011;9540;51.550;7.980;2023-02-14T07:52:08;14.33;;;7.17;;
18822;SDS011;9540;51.550;7.980;2023-02-14T07:54:35;14.20;;;7.83;;
18822;SDS011;9540;51.550;7.980;2023-02-14T07:57:02;11.00;;;7.10;;
18822;SDS011;9540;51.550;7.980;2023-02-14T07:59:29;10.87;;;6.40;;
18822;SDS011;9540;51.550;7.980;2023-02-14T08:01:56;8.87;;;5.73;;
18822;SDS011;9540;51.550;7.980;2023-02-14T08:04:23;6.33;;;5.43;;
18822;SDS011;9540;51.550;7.980;2023-02-14T08:06:51;6.80;;;4.93;;
18822;SDS011;9540;51.550;7.980;2023-02-14T08:09:20;7.45;;;5.45;;
18822;SDS011;9540;51.550;7.980;2023-02-14T08:11:49;8.52;;;5.03;;
18822;SDS011;9540;51.550;7.980;2023-02-14T08:14:34;8.75;;;5.68;;
18822;SDS011;9540;51.550;7.980;2023-02-14T08:17:01;7.90;;;4.93;;
18822;SDS011;9540;51.550;7.980;2023-02-14T08:19:29;7.65;;;4.75;;
18822;SDS011;9540;51.550;7.980;2023-02-14T08:21:56;7.05;;;4.53;;
18822;SDS011;9540;51.550;7.980;2023-02-14T08:24:25;5.95;;;4.15;;
18822;SDS011;9540;51.550;7.980;2023-02-14T08:26:52;5.85;;;4.47;;
18822;SDS011;9540;51.550;7.980;2023-02-14T08:29:19;6.68;;;4.88;;
18822;SDS011;9540;51.550;7.980;2023-02-14T08:31:46;7.20;;;4.88;;
18822;SDS011;9540;51.550;7.980;2023-02-14T08:34:13;6.82;;;4.95;;
18822;SDS011;9540;51.550;7.980;2023-02-14T08:36:40;5.88;;;4.53;;
18822;SDS011;9540;51.550;7.980;2023-02-14T08:39:08;8.23;;;5.72;;
18822;SDS011;9540;51.550;7.980;2023-02-14T08:41:37;6.50;;;5.68;;
18822;SDS011;9540;51.550;7.980;2023-02-14T08:44:04;6.43;;;5.07;;
18822;SDS011;9540;51.550;7.980;2023-02-14T08:46:31;5.22;;;4.70;;
18822;SDS011;9540;51.550;7.980;2023-02-14T08:48:58;5.28;;;4.38;;
18822;SDS011;9540;51.550;7.980;2023-02-14T08:51:25;5.28;;;4.70;;
18822;SDS011;9540;51.550;7.980;2023-02-14T08:53:51;5.38;;;4.60;;
18822;SDS011;9540;51.550;7.980;2023-02-14T08:56:20;6.63;;;4.78;;
18822;SDS011;9540;51.550;7.980;2023-02-14T08:58:51;7.55;;;5.70;;
18822;SDS011;9540;51.550;7.980;2023-02-14T09:01:19;7.95;;;6.03;;
18822;SDS011;9540;51.550;7.980;2023-02-14T09:03:46;7.63;;;5.47;;
18822;SDS011;9540;51.550;7.980;2023-02-14T09:06:13;8.63;;;5.95;;
18822;SDS011;9540;51.550;7.980;2023-02-14T09:08:42;10.63;;;6.88;;
18822;SDS011;9540;51.550;7.980;2023-02-14T09:11:11;7.78;;;6.45;;
18822;SDS011;9540;51.550;7.980;2023-02-14T09:13:40;8.80;;;5.93;;
18822;SDS011;9540;51.550;7.980;2023-02-14T09:16:09;8.95;;;6.00;;
18822;SDS011;9540;51.550;7.980;2023-02-14T09:18:38;7.72;;;5.95;;
18822;SDS011;9540;51.550;7.980;2023-02-14T09:21:06;8.90;;;5.60;;
18822;SDS011;9540;51.550;7.980;2023-02-14T09:23:35;7.05;;;5.57;;
18822;SDS011;9540;51.550;7.980;2023-02-14T09:26:02;9.77;;;5.95;;
18822;SDS011;9540;51.550;7.980;2023-02-14T09:28:31;8.77;;;6.05;;
18822;SDS011;9540;51.550;7.980;2023-02-14T09:31:00;6.57;;;5.47;;
18822;SDS011;9540;51.550;7.980;2023-02-14T09:33:35;8.93;;;5.85;;
18822;SDS011;9540;51.550;7.980;2023-02-14T09:36:08;7.38;;;5.75;;
18822;SDS011;9540;51.550;7.980;2023-02-14T09:38:53;10.07;;;5.65;;
18822;SDS011;9540;51.550;7.980;2023-02-14T09:41:30;9.30;;;5.63;;
18822;SDS011;9540;51.550;7.980;2023-02-14T09:44:10;7.93;;;5.60;;
18822;SDS011;9540;51.550;7.980;2023-02-14T09:46:46;9.25;;;5.75;;
18822;SDS011;9540;51.550;7.980;2023-02-14T09:49:17;7.63;;;5.78;;
18822;SDS011;9540;51.550;7.980;2023-02-14T09:51:49;11.20;;;5.90;;
18822;SDS011;9540;51.550;7.980;2023-02-14T09:54:20;7.50;;;5.65;;
18822;SDS011;9540;51.550;7.980;2023-02-14T09:56:51;6.75;;;5.28;;
18822;SDS011;9540;51.550;7.980;2023-02-14T09:59:24;7.97;;;5.63;;
18822;SDS011;9540;51.550;7.980;2023-02-14T10:01:57;6.65;;;5.70;;
18822;SDS011;9540;51.550;7.980;2023-02-14T10:04:30;7.43;;;5.72;;
18822;SDS011;9540;51.550;7.980;2023-02-14T10:06:59;7.30;;;5.22;;
18822;SDS011;9540;51.550;7.980;2023-02-14T10:09:44;8.13;;;5.18;;
18822;SDS011;9540;51.550;7.980;2023-02-14T10:12:22;11.00;;;5.78;;
18822;SDS011;9540;51.550;7.980;2023-02-14T10:14:52;7.75;;;5.22;;
18822;SDS011;9540;51.550;7.980;2023-02-14T10:17:32;7.00;;;5.10;;
18822;SDS011;9540;51.550;7.980;2023-02-14T10:20:04;6.70;;;5.15;;
18822;SDS011;9540;51.550;7.980;2023-02-14T10:22:42;10.65;;;5.60;;
18822;SDS011;9540;51.550;7.980;2023-02-14T10:25:13;8.05;;;5.72;;
18822;SDS011;9540;51.550;7.980;2023-02-14T10:27:46;7.53;;;5.30;;
18822;SDS011;9540;51.550;7.980;2023-02-14T10:30:16;6.95;;;5.40;;
18822;SDS011;9540;51.550;7.980;2023-02-14T10:32:47;8.82;;;5.70;;
18822;SDS011;9540;51.550;7.980;2023-02-14T10:35:22;6.15;;;4.55;;
18822;SDS011;9540;51.550;7.980;2023-02-14T10:37:59;9.10;;;5.53;;
18822;SDS011;9540;51.550;7.980;2023-02-14T10:40:46;7.65;;;5.25;;
18822;SDS011;9540;51.550;7.980;2023-02-14T10:43:26;10.18;;;5.60;;
18822;SDS011;9540;51.550;7.980;2023-02-14T10:46:02;7.60;;;5.05;;
18822;SDS011;9540;51.550;7.980;2023-02-14T10:48:45;7.82;;;4.97;;
18822;SDS011;9540;51.550;7.980;2023-02-14T10:51:22;11.25;;;4.90;;
18822;SDS011;9540;51.550;7.980;2023-02-14T10:53:57;7.88;;;5.32;;
18822;SDS011;9540;51.550;7.980;2023-02-14T10:56:34;7.57;;;5.25;;
18822;SDS011;9540;51.550;7.980;2023-02-14T10:59:07;7.15;;;5.18;;
18822;SDS011;9540;51.550;7.980;2023-02-14T11:01:42;7.35;;;4.90;;
18822;SDS011;9540;51.550;7.980;2023-02-14T11:04:11;9.02;;;5.03;;
18822;SDS011;9540;51.550;7.980;2023-02-14T11:06:40;7.15;;;5.47;;
18822;SDS011;9540;51.550;7.980;2023-02-14T11:09:08;8.80;;;6.30;;
18822;SDS011;9540;51.550;7.980;2023-02-14T11:11:36;9.93;;;6.60;;
18822;SDS011;9540;51.550;7.980;2023-02-14T11:14:19;9.10;;;6.97;;
18822;SDS011;9540;51.550;7.980;2023-02-14T11:16:48;9.20;;;6.22;;
18822;SDS011;9540;51.550;7.980;2023-02-14T11:19:22;9.27;;;6.32;;
18822;SDS011;9540;51.550;7.980;2023-02-14T11:21:52;7.60;;;5.80;;
18822;SDS011;9540;51.550;7.980;2023-02-14T11:24:24;12.02;;;6.35;;
18822;SDS011;9540;51.550;7.980;2023-02-14T11:26:54;11.32;;;6.22;;
18822;SDS011;9540;51.550;7.980;2023-02-14T11:29:25;8.35;;;6.07;;
18822;SDS011;9540;51.550;7.980;2023-02-14T11:31:54;8.80;;;5.93;;
18822;SDS011;9540;51.550;7.980;2023-02-14T11:34:27;8.68;;;6.57;;
18822;SDS011;9540;51.550;7.980;2023-02-14T11:37:00;9.05;;;6.40;;
18822;SDS011;9540;51.550;7.980;2023-02-14T11:39:29;12.55;;;6.47;;
18822;SDS011;9540;51.550;7.980;2023-02-14T11:42:00;10.45;;;6.53;;
18822;SDS011;9540;51.550;7.980;2023-02-14T11:44:30;10.85;;;6.55;;
18822;SDS011;9540;51.550;7.980;2023-02-14T11:49:54;10.95;;;6.63;;
18822;SDS011;9540;51.550;7.980;2023-02-14T11:52:22;8.68;;;5.95;;
18822;SDS011;9540;51.550;7.980;2023-02-14T11:54:50;10.98;;;5.55;;
18822;SDS011;9540;51.550;7.980;2023-02-14T11:57:20;10.45;;;5.18;;
18822;SDS011;9540;51.550;7.980;2023-02-14T11:59:52;7.35;;;4.70;;
18822;SDS011;9540;51.550;7.980;2023-02-14T12:02:22;9.13;;;4.57;;
18822;SDS011;9540;51.550;7.980;2023-02-14T12:04:54;5.28;;;4.65;;
18822;SDS011;9540;51.550;7.980;2023-02-14T12:07:25;5.15;;;4.00;;
18822;SDS011;9540;51.550;7.980;2023-02-14T12:10:10;6.80;;;4.97;;
18822;SDS011;9540;51.550;7.980;2023-02-14T12:12:48;7.72;;;4.90;;
18822;SDS011;9540;51.550;7.980;2023-02-14T12:15:30;10.15;;;5.90;;
18822;SDS011;9540;51.550;7.980;2023-02-14T12:21:07;8.07;;;6.82;;
18822;SDS011;9540;51.550;7.980;2023-02-14T12:23:42;8.43;;;6.28;;
18822;SDS011;9540;51.550;7.980;2023-02-14T12:26:17;9.00;;;6.15;;
18822;SDS011;9540;51.550;7.980;2023-02-14T12:28:50;9.07;;;6.25;;
18822;SDS011;9540;51.550;7.980;2023-02-14T12:31:23;9.57;;;6.32;;
18822;SDS011;9540;51.550;7.980;2023-02-14T12:33:50;8.98;;;6.07;;
18822;SDS011;9540;51.550;7.980;2023-02-14T12:36:21;6.53;;;5.13;;
18822;SDS011;9540;51.550;7.980;2023-02-14T12:39:00;6.97;;;5.75;;
18822;SDS011;9540;51.550;7.980;2023-02-14T12:41:36;5.90;;;5.30;;
18822;SDS011;9540;51.550;7.980;2023-02-14T12:44:12;6.30;;;5.13;;
18822;SDS011;9540;51.550;7.980;2023-02-14T12:46:49;8.35;;;5.20;;
18822;SDS011;9540;51.550;7.980;2023-02-14T12:49:35;8.32;;;5.07;;
18822;SDS011;9540;51.550;7.980;2023-02-14T12:52:26;11.82;;;5.20;;
18822;SDS011;9540;51.550;7.980;2023-02-14T12:55:04;7.78;;;4.80;;
18822;SDS011;9540;51.550;7.980;2023-02-14T12:57:56;6.82;;;5.13;;
18822;SDS011;9540;51.550;7.980;2023-02-14T13:00:30;6.47;;;5.35;;
18822;SDS011;9540;51.550;7.980;2023-02-14T13:03:24;8.52;;;5.45;;
18822;SDS011;9540;51.550;7.980;2023-02-14T13:06:12;6.63;;;5.53;;
18822;SDS011;9540;51.550;7.980;2023-02-14T13:08:50;7.72;;;6.15;;
18822;SDS011;9540;51.550;7.980;2023-02-14T13:11:30;7.20;;;5.85;;
18822;SDS011;9540;51.550;7.980;2023-02-14T13:14:08;11.15;;;5.90;;
18822;SDS011;9540;51.550;7.980;2023-02-14T13:16:58;9.50;;;5.40;;
18822;SDS011;9540;51.550;7.980;2023-02-14T13:19:33;10.73;;;6.25;;
18822;SDS011;9540;51.550;7.980;2023-02-14T13:22:06;7.15;;;5.20;;
18822;SDS011;9540;51.550;7.980;2023-02-14T13:24:39;7.18;;;4.90;;
18822;SDS011;9540;51.550;7.980;2023-02-14T13:27:11;7.53;;;5.93;;
18822;SDS011;9540;51.550;7.980;2023-02-14T13:29:44;9.20;;;6.00;;
18822;SDS011;9540;51.550;7.980;2023-02-14T13:32:15;7.10;;;5.18;;
18822;SDS011;9540;51.550;7.980;2023-02-14T13:34:46;7.10;;;5.13;;
18822;SDS011;9540;51.550;7.980;2023-02-14T13:37:15;6.40;;;5.07;;
18822;SDS011;9540;51.550;7.980;2023-02-14T13:39:46;8.65;;;5.60;;
18822;SDS011;9540;51.550;7.980;2023-02-14T13:48:17;7.75;;;5.13;;
18822;SDS011;9540;51.550;7.980;2023-02-14T13:50:48;5.72;;;4.88;;
18822;SDS011;9540;51.550;7.980;2023-02-14T13:53:30;9.57;;;5.00;;
18822;SDS011;9540;51.550;7.980;2023-02-14T13:58:59;7.13;;;5.07;;
18822;SDS011;9540;51.550;7.980;2023-02-14T14:01:30;9.60;;;4.90;;
18822;SDS011;9540;51.550;7.980;2023-02-14T14:04:00;5.60;;;4.97;;
18822;SDS011;9540;51.550;7.980;2023-02-14T14:06:31;5.68;;;4.78;;
18822;SDS011;9540;51.550;7.980;2023-02-14T14:15:17;10.35;;;4.95;;
18822;SDS011;9540;51.550;7.980;2023-02-14T14:20:56;8.02;;;4.63;;
18822;SDS011;9540;51.550;7.980;2023-02-14T14:23:25;9.15;;;4.90;;
18822;SDS011;9540;51.550;7.980;2023-02-14T14:25:59;9.35;;;4.53;;
18822;SDS011;9540;51.550;7.980;2023-02-14T14:28:29;8.95;;;4.57;;
18822;SDS011;9540;51.550;7.980;2023-02-14T14:30:58;6.97;;;4.35;;
18822;SDS011;9540;51.550;7.980;2023-02-14T14:33:26;5.63;;;4.82;;
18822;SDS011;9540;51.550;7.980;2023-02-14T14:35:55;7.60;;;4.93;;
18822;SDS011;9540;51.550;7.980;2023-02-14T14:38:24;8.00;;;4.72;;
18822;SDS011;9540;51.550;7.980;2023-02-14T14:40:51;6.88;;;4.90;;
18822;SDS011;9540;51.550;7.980;2023-02-14T14:43:23;6.50;;;4.45;;
18822;SDS011;9540;51.550;7.980;2023-02-14T14:45:53;7.07;;;5.00;;
18822;SDS011;9540;51.550;7.980;2023-02-14T14:48:25;6.50;;;4.85;;
18822;SDS011;9540;51.550;7.980;2023-02-14T14:50:55;7.07;;;5.15;;
18822;SDS011;9540;51.550;7.980;2023-02-14T14:53:24;6.90;;;4.43;;
18822;SDS011;9540;51.550;7.980;2023-02-14T14:55:53;5.97;;;4.75;;
18822;SDS011;9540;51.550;7.980;2023-02-14T14:58:30;10.93;;;5.60;;
18822;SDS011;9540;51.550;7.980;2023-02-14T15:01:01;9.32;;;5.53;;
18822;SDS011;9540;51.550;7.980;2023-02-14T15:03:28;6.00;;;4.47;;
18822;SDS011;9540;51.550;7.980;2023-02-14T15:06:06;6.95;;;4.28;;
18822;SDS011;9540;51.550;7.980;2023-02-14T15:08:39;10.55;;;4.88;;
18822;SDS011;9540;51.550;7.980;2023-02-14T15:11:08;7.78;;;4.60;;
18822;SDS011;9540;51.550;7.980;2023-02-14T15:13:39;4.93;;;3.92;;
18822;SDS011;9540;51.550;7.980;2023-02-14T15:16:17;8.10;;;4.40;;
18822;SDS011;9540;51.550;7.980;2023-02-14T15:18:45;9.02;;;4.38;;
18822;SDS011;9540;51.550;7.980;2023-02-14T15:21:14;5.00;;;4.20;;
18822;SDS011;9540;51.550;7.980;2023-02-14T15:23:41;5.35;;;4.20;;
18822;SDS011;9540;51.550;7.980;2023-02-14T15:26:14;8.10;;;4.28;;
18822;SDS011;9540;51.550;7.980;2023-02-14T15:28:43;5.50;;;4.30;;
18822;SDS011;9540;51.550;7.980;2023-02-14T15:31:20;8.55;;;3.88;;
18822;SDS011;9540;51.550;7.980;2023-02-14T15:33:47;4.90;;;3.95;;
18822;SDS011;9540;51.550;7.980;2023-02-14T15:36:16;5.93;;;4.05;;
18822;SDS011;9540;51.550;7.980;2023-02-14T15:38:48;7.47;;;3.90;;
18822;SDS011;9540;51.550;7.980;2023-02-14T15:41:17;9.48;;;4.45;;
18822;SDS011;9540;51.550;7.980;2023-02-14T15:43:44;4.65;;;4.22;;
18822;SDS011;9540;51.550;7.980;2023-02-14T15:46:17;9.02;;;4.32;;
18822;SDS011;9540;51.550;7.980;2023-02-14T15:48:51;6.60;;;4.38;;
18822;SDS011;9540;51.550;7.980;2023-02-14T15:51:19;9.38;;;4.30;;
18822;SDS011;9540;51.550;7.980;2023-02-14T15:53:51;7.65;;;4.60;;
18822;SDS011;9540;51.550;7.980;2023-02-14T15:56:20;7.47;;;4.35;;
18822;SDS011;9540;51.550;7.980;2023-02-14T15:58:51;7.85;;;5.10;;
18822;SDS011;9540;51.550;7.980;2023-02-14T16:01:25;11.20;;;5.55;;
18822;SDS011;9540;51.550;7.980;2023-02-14T16:03:54;8.05;;;4.43;;
18822;SDS011;9540;51.550;7.980;2023-02-14T16:06:33;7.05;;;4.03;;
18822;SDS011;9540;51.550;7.980;2023-02-14T16:09:03;6.90;;;4.93;;
18822;SDS011;9540;51.550;7.980;2023-02-14T16:11:33;5.18;;;3.80;;
18822;SDS011;9540;51.550;7.980;2023-02-14T16:14:28;5.93;;;3.63;;
18822;SDS011;9540;51.550;7.980;2023-02-14T16:17:03;10.77;;;4.72;;
18822;SDS011;9540;51.550;7.980;2023-02-14T16:19:45;8.15;;;4.40;;
18822;SDS011;9540;51.550;7.980;2023-02-14T16:22:23;8.38;;;4.45;;
18822;SDS011;9540;51.550;7.980;2023-02-14T16:25:02;7.88;;;5.30;;